Time;durP1;ratioP1;P1;durP2;ratioP2;P2;SDS_P1;SDS_P2;PMS_P1;PMS_P2;Temp;Humidity;BMP_temperature;BMP_pressure;BME280_temperature;BME280_humidity;BME280_pressure;Samples;Min_cycle;Max_cycle;Signal;HPM_P1;HPM_P2
2023/03/25 00:02:08;;;;;;;22.10;14.50;;;;;;;10.12;74.42;100648.17;110330;1245;60188;-96
2023/03/25 00:04:43;;;;;;;20.80;14.90;;;;;;;10.13;74.43;100651.08;110279;1244;73183;-96
2023/03/25 00:07:33;;;;;;;18.60;15.00;;;;;;;10.09;74.47;100648.54;109980;1244;65925;-96
2023/03/25 00:10:03;;;;;;;23.00;14.50;;;;;;;10.05;74.46;100645.41;109859;1245;71820;-96
2023/03/25 00:12:37;;;;;;;21.50;14.30;;;;;;;10.03;74.53;100645.37;110065;1244;61523;-96
2023/03/25 00:15:11;;;;;;;20.40;14.10;;;;;;;9.97;74.73;100643.80;110346;1244;60891;-93
2023/03/25 00:17:52;;;;;;;22.60;13.90;;;;;;;9.95;75.00;100642.85;110607;1250;73813;-95
2023/03/25 00:20:23;;;;;;;23.40;14.40;;;;;;;9.93;75.15;100640.87;110119;1248;64404;-96
2023/03/25 00:23:34;;;;;;;23.80;14.60;;;;;;;9.92;75.25;100642.69;110515;1247;72017;-96
2023/03/25 00:26:28;;;;;;;27.90;15.10;;;;;;;9.90;75.24;100639.80;109273;1247;61980;-95
2023/03/25 00:29:02;;;;;;;21.70;15.00;;;;;;;9.88;75.37;100636.62;109727;1245;60962;-96
2023/03/25 00:31:31;;;;;;;21.10;13.60;;;;;;;9.84;75.25;100636.49;110210;1246;73375;-96
2023/03/25 00:34:13;;;;;;;26.70;15.10;;;;;;;9.78;75.33;100638.73;109338;1247;63372;-96
2023/03/25 00:36:47;;;;;;;25.30;15.10;;;;;;;9.75;75.41;100638.77;108941;1248;72705;-95
2023/03/25 00:39:17;;;;;;;23.50;14.20;;;;;;;9.69;75.60;100633.85;109009;1248;62158;-96
2023/03/25 00:41:56;;;;;;;20.60;13.60;;;;;;;9.70;75.97;100639.23;109099;1247;62642;-95
2023/03/25 00:44:42;;;;;;;29.50;16.00;;;;;;;9.71;76.13;100637.42;108889;1247;74317;-96
2023/03/25 00:47:17;;;;;;;22.10;14.80;;;;;;;9.73;76.17;100648.13;108799;1247;63876;-96
2023/03/25 00:50:04;;;;;;;21.90;15.60;;;;;;;9.72;76.13;100643.09;109162;1244;71854;-96
2023/03/25 00:54:03;;;;;;;27.20;16.80;;;;;;;9.79;76.14;100642.04;104837;1292;611952;-95
2023/03/25 00:57:06;;;;;;;21.10;14.30;;;;;;;9.73;75.88;100635.23;108272;1266;60977;-94
2023/03/25 00:59:39;;;;;;;28.00;15.60;;;;;;;9.72;75.78;100635.45;108451;1260;59450;-95
2023/03/25 01:03:11;;;;;;;;;;;;;;;;;;;;;
2023/03/25 01:17:43;;;;;;;22.50;15.80;;;;;;;9.88;75.56;100633.11;106628;1283;614211;-95
2023/03/25 01:20:55;;;;;;;20.00;15.60;;;;;;;9.89;75.15;100636.21;107999;1267;290878;-96
2023/03/25 01:24:19;;;;;;;20.60;14.50;;;;;;;9.79;75.39;100637.16;108273;1270;61357;-95
2023/03/25 01:27:29;;;;;;;24.10;16.00;;;;;;;9.69;75.58;100631.77;108574;1273;72677;-96
2023/03/25 01:30:44;;;;;;;19.60;16.50;;;;;;;9.63;75.76;100632.80;108386;1260;66054;31
2023/03/25 01:34:15;;;;;;;25.00;15.90;;;;;;;9.53;75.91;100631.95;107930;1277;71366;-96
2023/03/25 01:40:42;;;;;;;21.10;16.40;;;;;;;9.38;76.08;100627.00;106791;1274;59253;-96
2023/03/25 01:43:28;;;;;;;25.10;16.10;;;;;;;9.34;76.23;100626.38;107794;1273;71386;-96
2023/03/25 01:46:18;;;;;;;24.00;16.70;;;;;;;9.28;76.57;100631.05;107116;1275;64811;-96
2023/03/25 01:49:16;;;;;;;27.40;16.90;;;;;;;9.21;76.74;100628.10;107561;1271;73982;-96
2023/03/25 01:52:33;;;;;;;20.60;15.90;;;;;;;9.24;77.19;100633.86;108078;1274;63478;-96
2023/03/25 09:01:25;;;;;;;8.70;6.30;;;;;;;24.10;35.15;100558.14;105413;1283;615912;-94
2023/03/25 09:03:57;;;;;;;5.80;5.20;;;;;;;24.43;34.83;100557.75;107775;1268;60437;-96
2023/03/25 09:06:44;;;;;;;11.10;6.60;;;;;;;24.66;34.06;100558.58;107330;1258;61111;-96
2023/03/25 09:10:53;;;;;;;8.00;7.20;;;;;;;24.84;33.87;100563.77;108460;1261;70835;31
2023/03/25 09:13:42;;;;;;;8.10;6.50;;;;;;;24.59;33.97;100556.01;104936;1263;5181571;-94
2023/03/25 09:19:26;;;;;;;77.10;68.80;;;;;;;24.33;34.14;100556.23;108845;1260;59858;-95
2023/03/25 09:27:01;;;;;;;9.70;7.60;;;;;;;24.21;34.30;100552.20;105932;1262;70973;31
2023/03/25 09:30:44;;;;;;;10.10;6.70;;;;;;;23.91;34.50;100547.50;107915;1270;64399;-93
2023/03/25 09:45:29;;;;;;;8.80;7.70;;;;;;;23.72;35.06;100553.38;106749;1273;71736;-94
2023/03/25 09:48:42;;;;;;;6.50;5.90;;;;;;;23.92;35.36;100551.30;107537;1273;63570;-94
2023/03/25 09:51:14;;;;;;;7.40;6.70;;;;;;;24.07;35.26;100547.42;106288;1279;73274;-94
2023/03/25 09:54:13;;;;;;;8.70;6.10;;;;;;;24.25;35.07;100541.35;107901;1273;60491;-96
2023/03/25 09:56:46;;;;;;;8.90;6.30;;;;;;;24.45;34.64;100542.18;107633;1273;60472;-95
2023/03/25 09:59:19;;;;;;;8.30;6.20;;;;;;;24.63;34.59;100544.84;107266;1273;73004;-96
2023/03/25 10:02:03;;;;;;;8.20;6.70;;;;;;;24.69;34.09;100540.51;107471;1273;64759;-93
2023/03/25 10:04:57;;;;;;;10.10;7.50;;;;;;;24.49;34.31;100536.14;108423;1270;72431;-95
2023/03/25 10:08:12;;;;;;;8.50;6.50;;;;;;;24.52;34.63;100531.69;107895;1270;58139;-95
2023/03/25 10:11:00;;;;;;;7.80;7.00;;;;;;;24.60;34.39;100529.38;107437;1270;60604;-95
2023/03/25 10:18:39;;;;;;;10.40;6.80;;;;;;;24.45;34.76;100521.43;106782;1273;62753;-92
2023/03/25 10:21:22;;;;;;;7.50;6.80;;;;;;;24.52;34.99;100518.96;105773;1273;72507;-94
2023/03/25 10:24:45;;;;;;;8.60;7.10;;;;;;;24.73;34.68;100518.90;107276;1273;60516;-96
2023/03/25 10:27:36;;;;;;;8.70;6.90;;;;;;;24.75;34.47;100514.09;106210;1273;60523;-94
2023/03/25 10:30:26;;;;;;;11.10;7.60;;;;;;;24.79;34.53;100513.39;106957;1273;74111;-94
2023/03/25 10:33:00;;;;;;;13.80;8.60;;;;;;;24.75;34.60;100505.27;106899;1273;63699;-95
2023/03/25 10:36:26;;;;;;;10.50;9.20;;;;;;;24.67;34.62;100509.19;106946;1271;71399;-96
2023/03/25 10:40:18;;;;;;;8.70;7.50;;;;;;;24.23;34.88;100498.67;107872;1269;61399;-94
2023/03/25 10:43:40;;;;;;;10.60;8.90;;;;;;;23.83;35.78;100498.91;107800;1271;61770;-96
2023/03/25 10:46:46;;;;;;;9.90;8.90;;;;;;;23.60;36.30;100489.86;107126;1272;73749;-95
2023/03/25 10:49:36;;;;;;;18.20;9.40;;;;;;;23.36;36.72;100487.71;107067;1273;63769;-94
2023/03/25 10:56:54;;;;;;;11.80;8.50;;;;;;;22.83;37.50;100475.61;107406;1272;60623;-95
2023/03/25 10:59:56;;;;;;;9.80;8.60;;;;;;;22.82;37.70;100472.64;107126;1272;59603;-96
2023/03/25 11:03:20;;;;;;;11.10;9.40;;;;;;;22.93;37.54;100465.80;107355;1274;73151;-94
2023/03/25 11:05:58;;;;;;;10.30;9.30;;;;;;;22.88;38.01;100461.45;107541;1272;63972;-95
2023/03/25 11:08:32;;;;;;;11.80;8.70;;;;;;;22.83;37.98;100453.41;106833;1272;72495;-95
2023/03/25 11:11:38;;;;;;;18.30;10.90;;;;;;;22.66;38.04;100454.89;107995;1273;60437;-94
2023/03/25 11:14:37;;;;;;;10.50;9.40;;;;;;;22.19;38.39;100453.02;108135;1272;61270;-96
2023/03/25 11:17:30;;;;;;;10.00;8.70;;;;;;;21.64;39.51;100445.36;107836;1273;74223;-96
2023/03/25 11:21:14;;;;;;;11.00;9.80;;;;;;;21.55;40.07;100435.52;107252;1276;62477;-96
2023/03/25 11:24:22;;;;;;;10.80;9.30;;;;;;;21.88;40.17;100433.34;107640;1276;74299;-96
2023/03/25 11:26:57;;;;;;;10.70;8.90;;;;;;;22.06;39.70;100429.95;106589;1276;61019;-96
2023/03/25 11:29:27;;;;;;;13.30;11.30;;;;;;;22.09;38.92;100429.34;107284;1276;60376;-94
2023/03/25 11:32:34;;;;;;;12.00;8.80;;;;;;;21.76;39.07;100425.58;107673;1264;74098;-93
2023/03/25 11:44:26;;;;;;;10.80;8.90;;;;;;;20.14;42.63;100410.85;105767;1294;59141;-94
2023/03/25 11:56:56;;;;;;;13.60;10.40;;;;;;;20.54;42.09;100385.54;108617;1273;60832;-96
2023/03/25 12:00:17;;;;;;;9.90;8.60;;;;;;;20.46;42.52;100386.15;107690;1273;72381;-96
2023/03/25 12:03:31;;;;;;;14.50;9.70;;;;;;;20.36;42.18;100384.42;107864;1274;65139;-95
2023/03/25 12:06:47;;;;;;;11.30;10.00;;;;;;;20.11;42.86;100382.04;108155;1269;72766;-93
2023/03/25 12:10:31;;;;;;;12.10;10.30;;;;;;;19.80;43.81;100373.70;108122;1274;59093;-94
2023/03/25 12:18:52;;;;;;;;;;;;;;;;;;;;;
2023/03/25 12:23:24;;;;;;;10.60;9.20;;;;;;;18.96;44.73;100363.92;108484;1262;61615;-87
2023/03/25 13:55:32;;;;;;;17.90;13.20;;;;;;;16.73;52.03;100293.21;91333;1271;986980;-96
2023/03/25 14:15:30;;;;;;;15.50;12.20;;;;;;;15.92;55.36;100269.57;108475;1270;58872;-96
2023/03/25 14:28:57;;;;;;;12.00;8.70;;;;;;;15.88;56.46;100246.86;108280;1264;71886;-96
2023/03/25 14:32:19;;;;;;;12.00;9.00;;;;;;;15.90;56.46;100250.21;108211;1267;61439;-96
2023/03/25 14:40:09;;;;;;;10.30;8.60;;;;;;;15.89;56.55;100241.67;107856;1267;73969;-96
2023/03/25 14:43:24;;;;;;;11.60;8.60;;;;;;;15.87;56.78;100236.20;108314;1267;61853;-96
2023/03/25 14:46:22;;;;;;;13.20;10.00;;;;;;;15.86;56.94;100232.61;108360;1267;73683;-96
2023/03/25 14:50:16;;;;;;;12.60;9.70;;;;;;;15.80;57.40;100225.58;107847;1267;59914;-95
2023/03/25 14:53:48;;;;;;;14.90;10.10;;;;;;;15.73;57.65;100226.33;107516;1267;59966;-94
2023/03/25 14:56:51;;;;;;;15.40;10.70;;;;;;;15.69;57.78;100227.30;107287;1267;73011;-95
2023/03/25 15:03:17;;;;;;;15.70;10.40;;;;;;;15.63;58.01;100218.85;105803;1289;612318;-96
2023/03/25 15:17:57;;;;;;;14.40;11.80;;;;;;;15.67;58.68;100219.77;105638;1282;613146;-96
2023/03/25 15:21:23;;;;;;;27.80;12.00;;;;;;;15.54;59.10;100212.23;100904;1261;10139702;-94
2023/03/25 15:24:58;;;;;;;17.40;11.70;;;;;;;15.38;59.53;100212.39;108525;1265;63553;-94
2023/03/25 15:31:19;;;;;;;24.60;12.20;;;;;;;15.10;60.73;100214.27;108277;1263;60870;-94
2023/03/25 15:34:08;;;;;;;20.70;13.80;;;;;;;14.98;61.03;100217.05;108044;1264;60138;-92
2023/03/25 15:37:21;;;;;;;18.70;12.60;;;;;;;14.88;61.41;100217.17;108206;1264;70768;-93
2023/03/25 15:40:40;;;;;;;22.90;13.60;;;;;;;14.80;61.83;100218.29;106908;1264;63646;-95
2023/03/25 15:43:34;;;;;;;18.00;13.10;;;;;;;14.73;62.31;100219.38;107442;1264;73066;-94
2023/03/25 15:47:42;;;;;;;19.00;14.30;;;;;;;14.59;62.60;100217.02;108884;1260;61220;-93
2023/03/25 15:51:10;;;;;;;18.50;14.10;;;;;;;14.47;62.83;100218.84;108071;1259;59872;-95
2023/03/25 15:54:08;;;;;;;23.00;15.40;;;;;;;14.38;63.32;100218.19;107247;1265;73870;-96
2023/03/25 15:56:47;;;;;;;23.40;15.40;;;;;;;14.30;63.55;100215.51;107154;1266;62258;-96
2023/03/25 15:59:49;;;;;;;28.30;19.10;;;;;;;14.27;63.78;100216.64;107577;1265;72932;-96
2023/03/25 21:18:35;;;;;;;24.80;18.20;;;;;;;9.11;91.12;100153.61;109239;1258;614401;-94
2023/03/25 21:22:00;;;;;;;29.70;19.20;;;;;;;9.12;90.97;100150.77;111735;1246;58825;-94
2023/03/25 21:29:02;;;;;;;30.50;18.50;;;;;;;9.07;91.28;100153.65;112215;1236;73153;-95
2023/03/25 21:38:46;;;;;;;30.30;18.30;;;;;;;9.07;92.01;100149.66;112537;1227;58739;-96
2023/03/25 21:42:13;;;;;;;23.30;17.30;;;;;;;9.05;92.19;100143.70;112249;1230;71284;-95
2023/03/25 21:45:10;;;;;;;32.80;19.20;;;;;;;9.07;92.46;100141.25;111579;1236;64974;-95
2023/03/25 21:47:54;;;;;;;27.70;18.70;;;;;;;9.12;92.54;100140.82;111449;1238;73424;-96
2023/03/25 21:50:55;;;;;;;33.00;20.00;;;;;;;9.16;92.48;100140.76;111266;1241;62730;-93
2023/03/25 21:53:45;;;;;;;35.10;20.20;;;;;;;9.19;92.49;100140.38;111775;1237;59443;-94
2023/03/25 21:56:59;;;;;;;27.50;18.80;;;;;;;9.24;92.39;100140.08;112314;1230;71786;-95
2023/03/25 22:00:15;;;;;;;28.80;19.10;;;;;;;9.28;92.32;100142.58;112789;1230;63522;-96
2023/03/25 22:03:57;;;;;;;28.10;18.10;;;;;;;9.32;92.06;100137.12;112624;1234;73481;-96
2023/03/25 22:07:06;;;;;;;26.00;19.10;;;;;;;9.33;91.96;100136.05;112444;1234;62159;-96
2023/03/25 22:10:16;;;;;;;30.90;19.80;;;;;;;9.30;92.01;100134.42;112368;1232;58754;-96
2023/03/25 22:13:25;;;;;;;34.90;18.00;;;;;;;9.28;91.96;100136.65;111511;1230;74542;-95
2023/03/25 22:16:12;;;;;;;35.40;21.50;;;;;;;9.27;92.04;100130.48;111222;1230;62446;-96
2023/03/25 22:19:38;;;;;;;41.60;25.80;;;;;;;9.21;92.34;100124.38;111950;1230;73040;31
2023/03/25 22:22:22;;;;;;;27.00;17.90;;;;;;;9.14;92.52;100124.48;111576;1232;62457;-92
2023/03/25 22:25:31;;;;;;;29.60;19.10;;;;;;;9.11;92.74;100119.08;110985;1240;60050;-96
2023/03/25 22:29:25;;;;;;;27.50;17.60;;;;;;;9.10;92.97;100124.84;111810;1235;74671;-95
2023/03/25 22:32:05;;;;;;;31.00;19.80;;;;;;;9.07;93.30;100129.76;111955;1235;63173;-93
2023/03/25 22:34:39;;;;;;;26.30;18.40;;;;;;;8.99;93.53;100123.80;111834;1237;71585;-96
2023/03/25 22:37:16;;;;;;;27.50;18.10;;;;;;;8.98;93.79;100117.62;110935;1237;61201;-94
2023/03/25 22:39:52;;;;;;;28.50;20.70;;;;;;;8.97;94.01;100116.46;110553;1244;59905;-94
2023/03/25 22:42:32;;;;;;;24.30;17.20;;;;;;;8.98;94.25;100113.59;111012;1238;74024;-96
2023/03/25 22:46:04;;;;;;;26.30;17.70;;;;;;;8.97;94.45;100110.52;111338;1237;62046;-95
2023/03/25 22:49:03;;;;;;;29.00;18.80;;;;;;;8.92;94.73;100106.64;110285;1240;73476;-96
2023/03/25 22:51:40;;;;;;;36.40;19.70;;;;;;;8.91;95.05;100103.73;111005;1237;61053;-95
2023/03/25 22:54:30;;;;;;;26.50;18.40;;;;;;;8.91;95.13;100099.55;111366;1236;61262;-95
2023/03/25 22:57:04;;;;;;;27.50;18.80;;;;;;;8.88;95.15;100096.95;112097;1235;72760;-96
2023/03/25 22:59:38;;;;;;;26.50;17.20;;;;;;;8.87;95.43;100096.49;111821;1233;64574;-95
2023/03/25 23:02:20;;;;;;;25.10;17.20;;;;;;;8.84;95.66;100096.48;112144;1233;71997;-96
2023/03/25 23:08:33;;;;;;;28.50;17.40;;;;;;;8.83;95.96;100094.48;112607;1236;61521;-92
2023/03/25 23:11:32;;;;;;;23.80;17.40;;;;;;;8.80;96.30;100095.36;112225;1232;72349;-96
2023/03/25 23:18:22;;;;;;;26.60;18.50;;;;;;;8.74;96.97;100085.09;111448;1232;985379;-96
2023/03/25 23:21:53;;;;;;;26.20;17.80;;;;;;;8.69;97.40;100076.86;112544;1231;60871;-93
2023/03/25 23:24:57;;;;;;;28.00;17.10;;;;;;;8.66;97.60;100077.37;112246;1231;59093;-94
2023/03/25 23:28:17;;;;;;;28.00;19.90;;;;;;;8.62;98.17;100076.60;112023;1235;72259;-94
2023/03/25 23:34:27;;;;;;;27.90;17.90;;;;;;;8.62;98.63;100072.55;112489;1232;71194;-95
2023/03/25 23:38:07;;;;;;;25.90;16.80;;;;;;;8.62;98.89;100071.32;112175;1232;61802;-95
2023/03/25 23:41:21;;;;;;;26.70;17.10;;;;;;;8.63;99.07;100069.55;111517;1233;60183;-94
2023/03/25 23:44:03;;;;;;;24.40;15.90;;;;;;;8.61;99.22;100063.89;111954;1234;72549;-93
2023/03/25 23:46:46;;;;;;;25.80;15.70;;;;;;;8.57;99.21;100052.48;111543;1233;65249;-95
2023/03/25 23:49:22;;;;;;;26.10;16.50;;;;;;;8.61;99.35;100055.93;110570;1235;73644;-96
2023/03/25 23:51:58;;;;;;;27.10;17.20;;;;;;;8.61;99.49;100052.25;110100;1234;61887;-95
2023/03/25 23:54:29;;;;;;;22.50;15.40;;;;;;;8.65;99.63;100053.04;110695;1234;59726;-96
2023/03/25 23:57:45;;;;;;;20.40;15.10;;;;;;;8.63;99.42;100049.14;110962;1234;74898;-95
